Warning: Javascript must be enabled to use all the features on this page!


Page Loading - Please Wait...

* We've detected you're using a mobile device. Find our Next Generation Station Page here.
Click to hideNews Bulletins

Peak Streamflow for the Nation

USGS 07291000 HOMOCHITTO RIVER AT EDDICETON, MS

Franklin County, Mississippi
Hydrologic Unit Code 08060205
Latitude  31°30'11", Longitude  90°46'39" NAD83
Drainage area 181  square miles
Contributing drainage area 181  square miles
Gage datum 212.22 feet above NGVD29
Output formats
Table
Graph
Tab-separated file
peakfq (watstore) format
Reselect output format
Water
Year
Date Gage
Height
(feet)
Stream-
flow
(cfs)
1939 1939-03-29 12.733 30,900
1940 1940-07-03 11.093 20,600
1941 1940-12-13 10.703 18,200
1942 1942-05-15 12.003 26,000
1943 1943-04-09 9.743 11,800
1944 1944-03-29 13.843 21,000
1945 1945-02-05 9.103 10,500
1946 1946-02-06 9.983 13,100
1947 1947-04-01 14.523 21,700
1948 1948-03-02 9.273 10,000
1949 1949-03-31 14.703 23,400
1950 1950-05-02 15.743 26,200
1951 1951-03-28 8.563 8,310
1952 1951-12-14 6.703 4,660
1953 1953-05-17 16.373 28,100
1954 1954-03-27 6.733 4,960
1955 1955-04-13 14.673 23,400
1956 1956-03-15 9.763 11,300
1957 1957-06-28 9.663 11,000
1958 1958-06-16 11.593 15,400
1959 1959-06-12 8.563 8,710
1960 1959-12-17 14.233 22,000
1961 1961-03-28 15.563 20,500
1962 1961-12-17 12.123 16,700
1963 1963-01-19 12.983 18,800
1964 1964-04-26 12.243 17,000
1965 1964-10-04 16.823 29,400
1966 1966-04-26 15.703 26,200
1967 1967-05-04 12.383 17,400
1968 1968-04-13 8.383 8,480
1969 1969-04-13 9.453 10,500
1970 1970-03-04 5.933 4,420
1971 1971-03-02 8.103 7,980
1972 1971-12-06 16.313 27,900
1973 1973-03-24 15.643 26,000
1974 1974-04-13 19.533 55,400
1975 1975-06-08 13.203 19,400
1976 1976-03-30 11.553 15,300
1977 1977-04-21 11.613 15,500
1978 1978-05-07 17.523 43,500
1979 1979-01-20 12.543 20,300
1980 1980-04-12 12.293 19,700
1981 1981-07-02 11.103 16,400
1982 1982-03-31 10.003 13,800
1983 1983-04-06 16.433 35,200
1984 1984-03-05 13.703,6 24,000
1985 1984-10-21 18.58 23,600
1986 1986-03-19 13.25 10,100
1987 1986-11-24 15.91 15,900
1988 1988-03-30 12.14 7,960
1989 1989-05-19 19.45 26,900
1990 1990-05-13 21.06 33,600
1991 1991-04-14 17.65 20,800
1992 1992-08-27 18.00 21,800
1993 1993-01-12 16.30 17,000
1994 1994-01-27 20.33 30,400
1995 1995-04-23 15.73 15,500
1996 1995-12-18 14.15 11,900
1997 1997-04-27 18.43 23,100
1998 1998-01-07 18.15 22,300
1999 1999-01-30 16.10 16,400
2000 2000-04-03 9.92 2,710
2001 2001-03-02 20.88 35,700
2002 2002-09-26 17.94 23,300
2003 2003-02-22 20.69 34,800
2004 2004-02-05 19.25 23,500
2005 2004-12-09 16.83 18,600
2006 2006-03-20 12.90 7,680
2007 2006-12-30 14.33 11,000
2008 2008-09-02 19.07 27,100
2009 2009-01-06 15.07 13,100
2010 2010-02-04 13.40 8,640
2011 2011-03-09 18.27 23,900
2012 2012-08-30 17.52 20,800
2013 2013-01-10 18.99 26,800
2014 2014-03-28 16.76 18,400
2015 2015-04-19 13.28 8,570
2016 2016-02-03 20.89 35,400
2017 2017-01-21 17.37 20,500
2018 2018-02-26 15.81 15,300
2019 2019-04-18 15.81 15,300
?
  Peak Gage-Height Qualification Codes.